MAPA DE AEROPUERTO

INFORMACIÓN METAR y TAF

METAR FOR LEVC
ADDS - METARS form results

(0923 UTC 22 October 2020)
Data provider http://aviationweather.gov/metar/data/
 
METAR text: LEVC 220900Z 00000KT 9999 SCT018 BKN025 21/13 Q1015 NOSIG
Conditions at: LEVC (VALENCIA (CIV/MI, ES) observed 0900 UTC 22 October 2020
Temperature: 21.0°C (70°F)
Dewpoint: 13.0°C (55°F) [RH = 60%]
Pressure (altimeter): 29.97 inches Hg (1015.0 mb)
Winds: calm
Visibility: 6 or more miles (10+ km)
Ceiling: 2500 feet AGL
Clouds: scattered clouds at 1800 feet AGL
broken clouds at 2500 feet AGL
Weather: no significant weather observed at this time

METAR text: LEVC 220830Z 00000KT 9999 SCT020 21/14 Q1014 NOSIG
Conditions at: LEVC (VALENCIA (CIV/MI, ES) observed 0830 UTC 22 October 2020
Temperature: 21.0°C (70°F)
Dewpoint: 14.0°C (57°F) [RH = 64%]
Pressure (altimeter): 29.94 inches Hg (1014.0 mb)
Winds: calm
Visibility: 6 or more miles (10+ km)
Ceiling: at least 12,000 feet AGL
Clouds: scattered clouds at 2000 feet AGL
Weather: no significant weather observed at this time

Forecast for: LEVC (VALENCIA (CIV/MI, ES)
Text: TAF LEVC 220500Z 2206/2306 VRB03KT 9999 FEW020 TX23/2213Z TN16/2206Z
Forecast period: 0600 UTC 22 October 2020 to 0600 UTC 23 October 2020
Forecast type: FROM: standard forecast or significant change
Winds: variable direction winds at 3 MPH (3 knots; 1.5 m/s)
Visibility: 6 or more miles (10+ km)
Ceiling: at least 12,000 feet AGL
Clouds: few clouds at 2000 feet AGL
Weather: no significant weather forecast for this period
Text: TEMPO 2211/2218 SHRA FEW040CB
Forecast period: 1100 to 1800 UTC 22 October 2020
Forecast type: TEMPORARY: The following changes expected for less than half the time period
Visibility: missing
Ceiling: at least 12,000 feet AGL
Clouds: few clouds at 4000 feet AGL
Weather: SHRA  (rain showers)
Text: PROB40
Forecast period: 1800 UTC 22 October 2020 to 0200 UTC 23 October 2020
Forecast type: TEMPORARY: The following changes expected for less than half the time period
Visibility: 1.86 miles (2.99 km)
Ceiling: 1000 feet AGL
Clouds: broken clouds at 1000 feet AGL
Weather: BR  (mist)